EFJYEFRO

Guest
Details From EFJY - Jyvaskyla
To EFRO - Rovaniemi
Flight Number -
Tags generated
Created
Modified
Stats Distance 250 nm / 464 km
Max Altitude 27,500 ft / 8,382 m
Waypoints 9
Social Downloads 18
Likes 0
Share VATSIM

Download

Looking for another format? Having issues loading an existing format? Contact us
Advertisement - Login to hide

Notes

Basic altitude profile: - Ascent Rate: 2500ft/min - Ascent Speed: 250kts - Cruise Altitude: 35000ft - Cruise Speed: 420kts - Descent Rate: 1500ft/min - Descent Speed: 250kts Options: - Use NATs: yes - Use PACOTS: yes - Use low airways: yes - Use high airways: yes

Route

EFJY USOPI M857 UTUNU UT9 EREPO T9 ROI EFRO

ID Type Via Altitude Latitude Longitude Leg Dist Tot Dist Heading (true) Name
O EFJY APT - 0 ft / 0 m 62.39945˚ 25.67825˚ - 0 nm - Jyvaskyla
USOPI FIX - 11,900 ft / 3,627 m 62.95583˚ 25.68417˚ 33 nm 33 nm 0° / 0° -
UTUNU FIX M857 (AWY-LO) 27,500 ft / 8,382 m 63.73750˚ 25.77694˚ 47 nm 80 nm 3° / 3° -
PEPUT FIX UT9 (AWY-HI) 27,500 ft / 8,382 m 64.44139˚ 25.78694˚ 42 nm 122 nm 0° / 0° -
EREPO FIX UT9 (AWY-HI) 27,500 ft / 8,382 m 65.36667˚ 25.80083˚ 55 nm 178 nm 0° / 0° -
ELBUS FIX T9 (AWY-LO) 9,500 ft / 2,896 m 65.84833˚ 25.80861˚ 28 nm 207 nm 0° / 0° -
VAPOT FIX T9 (AWY-LO) 9,500 ft / 2,896 m 66.12361˚ 25.81306˚ 16 nm 223 nm 0° / 0° -
ROI VOR T9 (AWY-LO) 9,500 ft / 2,896 m 66.56254˚ 25.82041˚ 26 nm 250 nm 0° / 0° ROVANI VOR-DME
O EFRO APT - 0 ft / 0 m 66.56482˚ 25.83042˚ 0 nm 250 nm 60° / 60° Rovaniemi

Altitude Profile

Advertisement - Login to hide

Weather


0- 5 10 15 20 25 30 35+ Temperature / ° C

Clouds and Precipitation
Forecast for 2018-05-21 12:00 UTC. Updated 12 minutes ago

Ground ~20,000 ft ~40,000 ft Winds

EFJY

Details ICAO EFJY (JYV)
Name Jyvaskyla
Region Finland
Timezone Europe/Helsinki (UTC+3.0)
Stats Elevation 459 ft / 140 m (AMSL)
Location 62.399451° 25.678250°
Runways 1
Magnetic Variation 9.988° E

METAR

EFJY 210920Z 24009G20KT 200V280 CAVOK 23/05 Q1024

Decode

TAF

TAF EFJY 210826Z 2109/2209 23009KT CAVOK= TAF EFKU 210826Z 2109/2209 22009KT CAVOK

Decode

Departure Runways

ID Width Length Bearing (true) Bearing (mag) Surface Threshold Offset Overrun Length
12 197 ft / 60 m 8,511 ft / 2,594 m 133.97° 123.98° Asphalt 0 ft / 0 m 295 ft / 90 m
30 197 ft / 60 m 8,511 ft / 2,594 m 314.00° 304.01° Asphalt 0 ft / 0 m 295 ft / 90 m

EFRO

Details ICAO EFRO (RVN)
Name Rovaniemi
Region Finland
Timezone Europe/Helsinki (UTC+3.0)
Stats Elevation 632 ft / 193 m (AMSL)
Location 66.564822° 25.830420°
Runways 1
Magnetic Variation 11.576° E

METAR

EFRO 210920Z 23014KT CAVOK 17/05 Q1018

Decode

TAF

TAF EFRO 210825Z 2109/2209 24015KT CAVOK TEMPO 2109/2115 25018G30KT

Decode

Destination Runways

ID Width Length Bearing (true) Bearing (mag) Surface Threshold Offset Overrun Length
03 197 ft / 60 m 9,819 ft / 2,993 m 37.14° 25.56° Asphalt 0 ft / 0 m 235 ft / 72 m
21 197 ft / 60 m 9,819 ft / 2,993 m 217.18° 205.60° Asphalt 0 ft / 0 m 218 ft / 66 m

Approach Navaids

Runway Type Ident Frequency Range Bearing (true) Bearing (mag) Slope Elevation
21 Localiser RO 111.70 MHz 18 nm / 33 km 217.13° 205.56° - 632 ft / 193 m (AMSL)
21 Glidescope RO 111.70 MHz 10 nm / 19 km 217.16° 205.58° 3.00° 632 ft / 193 m (AMSL)
21 DME RO 111.70 MHz 18 nm / 33 km - - - 673 ft / 205 m (AMSL)

Popular Alternatives